sensor_id;sensor_type;location;lat;lon;timestamp;P1;durP1;ratioP1;P2;durP2;ratioP2
71655;SDS011;59497;48.798;8.816;2022-07-29T00:00:38;6.13;;;5.47;;
71655;SDS011;59497;48.798;8.816;2022-07-29T00:03:03;6.50;;;5.20;;
71655;SDS011;59497;48.798;8.816;2022-07-29T00:05:28;6.00;;;5.33;;
71655;SDS011;59497;48.798;8.816;2022-07-29T00:07:54;5.77;;;5.23;;
71655;SDS011;59497;48.798;8.816;2022-07-29T00:10:19;6.77;;;5.80;;
71655;SDS011;59497;48.798;8.816;2022-07-29T00:12:44;6.10;;;5.50;;
71655;SDS011;59497;48.798;8.816;2022-07-29T00:15:09;6.27;;;5.47;;
71655;SDS011;59497;48.798;8.816;2022-07-29T00:17:34;5.67;;;5.07;;
71655;SDS011;59497;48.798;8.816;2022-07-29T00:20:00;7.05;;;5.95;;
71655;SDS011;59497;48.798;8.816;2022-07-29T00:22:25;5.70;;;5.10;;
71655;SDS011;59497;48.798;8.816;2022-07-29T00:24:50;5.87;;;5.27;;
71655;SDS011;59497;48.798;8.816;2022-07-29T00:27:15;5.78;;;5.28;;
71655;SDS011;59497;48.798;8.816;2022-07-29T00:29:41;6.45;;;5.28;;
71655;SDS011;59497;48.798;8.816;2022-07-29T00:32:06;7.13;;;5.53;;
71655;SDS011;59497;48.798;8.816;2022-07-29T00:34:31;6.20;;;5.60;;
71655;SDS011;59497;48.798;8.816;2022-07-29T00:37:15;7.72;;;5.40;;
71655;SDS011;59497;48.798;8.816;2022-07-29T00:39:40;6.67;;;5.47;;
71655;SDS011;59497;48.798;8.816;2022-07-29T00:42:05;5.30;;;4.80;;
71655;SDS011;59497;48.798;8.816;2022-07-29T00:44:35;5.47;;;4.80;;
71655;SDS011;59497;48.798;8.816;2022-07-29T00:47:00;6.88;;;5.55;;
71655;SDS011;59497;48.798;8.816;2022-07-29T00:49:25;4.93;;;4.53;;
71655;SDS011;59497;48.798;8.816;2022-07-29T00:51:51;6.15;;;5.50;;
71655;SDS011;59497;48.798;8.816;2022-07-29T00:54:16;6.70;;;5.45;;
71655;SDS011;59497;48.798;8.816;2022-07-29T00:56:41;6.70;;;5.73;;
71655;SDS011;59497;48.798;8.816;2022-07-29T00:59:06;6.33;;;5.73;;
71655;SDS011;59497;48.798;8.816;2022-07-29T01:01:31;6.10;;;5.10;;
71655;SDS011;59497;48.798;8.816;2022-07-29T01:03:56;6.37;;;5.57;;
71655;SDS011;59497;48.798;8.816;2022-07-29T01:06:22;6.83;;;5.67;;
71655;SDS011;59497;48.798;8.816;2022-07-29T01:08:47;7.90;;;6.13;;
71655;SDS011;59497;48.798;8.816;2022-07-29T01:11:13;6.75;;;5.40;;
71655;SDS011;59497;48.798;8.816;2022-07-29T01:13:39;6.10;;;5.50;;
71655;SDS011;59497;48.798;8.816;2022-07-29T01:16:13;6.07;;;5.18;;
71655;SDS011;59497;48.798;8.816;2022-07-29T01:18:41;6.10;;;5.50;;
71655;SDS011;59497;48.798;8.816;2022-07-29T01:21:23;6.03;;;5.45;;
71655;SDS011;59497;48.798;8.816;2022-07-29T01:23:58;6.07;;;5.47;;
71655;SDS011;59497;48.798;8.816;2022-07-29T01:34:04;5.80;;;5.20;;
71655;SDS011;59497;48.798;8.816;2022-07-29T01:36:52;6.05;;;5.45;;
71655;SDS011;59497;48.798;8.816;2022-07-29T01:39:31;6.10;;;5.50;;
71655;SDS011;59497;48.798;8.816;2022-07-29T01:42:10;6.50;;;5.70;;
71655;SDS011;59497;48.798;8.816;2022-07-29T01:45:11;6.03;;;5.37;;
71655;SDS011;59497;48.798;8.816;2022-07-29T01:47:33;5.53;;;4.68;;
71655;SDS011;59497;48.798;8.816;2022-07-29T01:49:59;5.88;;;5.03;;
71655;SDS011;59497;48.798;8.816;2022-07-29T01:52:29;6.20;;;5.60;;
71655;SDS011;59497;48.798;8.816;2022-07-29T01:54:57;5.47;;;4.82;;
71655;SDS011;59497;48.798;8.816;2022-07-29T01:57:27;8.00;;;5.27;;
71655;SDS011;59497;48.798;8.816;2022-07-29T01:59:53;6.18;;;5.57;;
71655;SDS011;59497;48.798;8.816;2022-07-29T02:02:19;5.72;;;5.15;;
71655;SDS011;59497;48.798;8.816;2022-07-29T02:04:45;6.30;;;5.15;;
71655;SDS011;59497;48.798;8.816;2022-07-29T02:07:13;6.90;;;5.75;;
71655;SDS011;59497;48.798;8.816;2022-07-29T02:09:40;7.07;;;5.93;;
71655;SDS011;59497;48.798;8.816;2022-07-29T02:12:06;6.53;;;5.78;;
71655;SDS011;59497;48.798;8.816;2022-07-29T02:14:33;6.65;;;5.95;;
71655;SDS011;59497;48.798;8.816;2022-07-29T02:16:59;6.70;;;6.10;;
71655;SDS011;59497;48.798;8.816;2022-07-29T02:19:25;7.23;;;6.03;;
71655;SDS011;59497;48.798;8.816;2022-07-29T02:21:51;6.13;;;5.50;;
71655;SDS011;59497;48.798;8.816;2022-07-29T02:24:18;5.55;;;4.93;;
71655;SDS011;59497;48.798;8.816;2022-07-29T02:26:43;6.33;;;5.27;;
71655;SDS011;59497;48.798;8.816;2022-07-29T02:29:09;6.60;;;5.47;;
71655;SDS011;59497;48.798;8.816;2022-07-29T02:31:34;5.37;;;4.87;;
71655;SDS011;59497;48.798;8.816;2022-07-29T02:34:01;5.60;;;5.10;;
71655;SDS011;59497;48.798;8.816;2022-07-29T02:36:27;4.80;;;4.30;;
71655;SDS011;59497;48.798;8.816;2022-07-29T02:38:53;5.55;;;4.85;;
71655;SDS011;59497;48.798;8.816;2022-07-29T02:41:29;5.30;;;4.80;;
71655;SDS011;59497;48.798;8.816;2022-07-29T02:43:56;4.80;;;4.30;;
71655;SDS011;59497;48.798;8.816;2022-07-29T02:46:25;6.10;;;4.93;;
71655;SDS011;59497;48.798;8.816;2022-07-29T02:48:57;6.20;;;5.55;;
71655;SDS011;59497;48.798;8.816;2022-07-29T02:51:25;5.60;;;5.10;;
71655;SDS011;59497;48.798;8.816;2022-07-29T02:53:53;5.63;;;5.10;;
71655;SDS011;59497;48.798;8.816;2022-07-29T02:56:20;5.40;;;4.90;;
71655;SDS011;59497;48.798;8.816;2022-07-29T02:58:46;5.45;;;4.95;;
71655;SDS011;59497;48.798;8.816;2022-07-29T03:01:14;5.13;;;4.63;;
71655;SDS011;59497;48.798;8.816;2022-07-29T03:03:40;5.32;;;4.93;;
71655;SDS011;59497;48.798;8.816;2022-07-29T03:06:07;5.40;;;4.90;;
71655;SDS011;59497;48.798;8.816;2022-07-29T03:08:33;5.45;;;4.95;;
71655;SDS011;59497;48.798;8.816;2022-07-29T03:10:59;5.22;;;4.72;;
71655;SDS011;59497;48.798;8.816;2022-07-29T03:13:25;5.40;;;4.90;;
71655;SDS011;59497;48.798;8.816;2022-07-29T03:15:51;6.00;;;5.37;;
71655;SDS011;59497;48.798;8.816;2022-07-29T03:18:16;5.43;;;4.93;;
71655;SDS011;59497;48.798;8.816;2022-07-29T03:20:42;8.37;;;4.93;;
71655;SDS011;59497;48.798;8.816;2022-07-29T03:23:07;6.35;;;5.32;;
71655;SDS011;59497;48.798;8.816;2022-07-29T03:25:33;4.83;;;4.37;;
71655;SDS011;59497;48.798;8.816;2022-07-29T03:27:58;5.87;;;5.27;;
71655;SDS011;59497;48.798;8.816;2022-07-29T03:30:23;4.88;;;4.47;;
71655;SDS011;59497;48.798;8.816;2022-07-29T03:32:49;5.70;;;5.20;;
71655;SDS011;59497;48.798;8.816;2022-07-29T03:35:15;5.53;;;5.03;;
71655;SDS011;59497;48.798;8.816;2022-07-29T03:37:41;4.93;;;4.47;;
71655;SDS011;59497;48.798;8.816;2022-07-29T03:40:07;5.30;;;4.70;;
71655;SDS011;59497;48.798;8.816;2022-07-29T03:42:32;5.60;;;5.10;;
71655;SDS011;59497;48.798;8.816;2022-07-29T03:44:59;5.43;;;5.00;;
71655;SDS011;59497;48.798;8.816;2022-07-29T03:47:25;5.30;;;4.55;;
71655;SDS011;59497;48.798;8.816;2022-07-29T03:49:52;6.90;;;4.40;;
71655;SDS011;59497;48.798;8.816;2022-07-29T03:52:18;5.50;;;4.07;;
71655;SDS011;59497;48.798;8.816;2022-07-29T03:54:44;4.53;;;4.13;;
71655;SDS011;59497;48.798;8.816;2022-07-29T03:57:12;5.07;;;4.53;;
71655;SDS011;59497;48.798;8.816;2022-07-29T03:59:37;5.80;;;4.55;;
71655;SDS011;59497;48.798;8.816;2022-07-29T04:02:04;4.50;;;4.10;;
71655;SDS011;59497;48.798;8.816;2022-07-29T04:04:31;4.20;;;3.80;;
71655;SDS011;59497;48.798;8.816;2022-07-29T04:06:57;5.00;;;4.07;;
71655;SDS011;59497;48.798;8.816;2022-07-29T04:09:22;4.47;;;3.80;;
71655;SDS011;59497;48.798;8.816;2022-07-29T04:11:47;4.97;;;4.47;;
71655;SDS011;59497;48.798;8.816;2022-07-29T04:14:12;4.23;;;3.83;;
71655;SDS011;59497;48.798;8.816;2022-07-29T04:16:37;4.53;;;4.13;;
71655;SDS011;59497;48.798;8.816;2022-07-29T04:19:03;4.70;;;4.30;;
71655;SDS011;59497;48.798;8.816;2022-07-29T04:21:28;5.07;;;4.57;;
71655;SDS011;59497;48.798;8.816;2022-07-29T04:23:53;5.67;;;5.17;;
71655;SDS011;59497;48.798;8.816;2022-07-29T04:26:19;5.47;;;4.97;;
71655;SDS011;59497;48.798;8.816;2022-07-29T04:28:44;6.23;;;5.03;;
71655;SDS011;59497;48.798;8.816;2022-07-29T04:31:09;5.30;;;4.80;;
71655;SDS011;59497;48.798;8.816;2022-07-29T04:33:34;5.17;;;4.67;;
71655;SDS011;59497;48.798;8.816;2022-07-29T04:36:00;5.40;;;4.88;;
71655;SDS011;59497;48.798;8.816;2022-07-29T04:38:25;5.20;;;4.70;;
71655;SDS011;59497;48.798;8.816;2022-07-29T04:40:50;5.30;;;4.80;;
71655;SDS011;59497;48.798;8.816;2022-07-29T04:43:16;6.30;;;4.60;;
71655;SDS011;59497;48.798;8.816;2022-07-29T04:45:41;8.13;;;5.53;;
71655;SDS011;59497;48.798;8.816;2022-07-29T04:48:06;7.15;;;5.60;;
71655;SDS011;59497;48.798;8.816;2022-07-29T04:50:32;7.97;;;5.23;;
71655;SDS011;59497;48.798;8.816;2022-07-29T04:52:57;5.70;;;5.20;;
71655;SDS011;59497;48.798;8.816;2022-07-29T04:55:22;6.70;;;5.20;;
71655;SDS011;59497;48.798;8.816;2022-07-29T04:57:47;6.30;;;5.70;;
71655;SDS011;59497;48.798;8.816;2022-07-29T05:00:13;6.20;;;5.43;;
71655;SDS011;59497;48.798;8.816;2022-07-29T05:02:38;5.45;;;4.95;;
71655;SDS011;59497;48.798;8.816;2022-07-29T05:05:03;6.10;;;5.50;;
71655;SDS011;59497;48.798;8.816;2022-07-29T05:07:29;6.27;;;5.60;;
71655;SDS011;59497;48.798;8.816;2022-07-29T05:09:54;6.20;;;5.60;;
71655;SDS011;59497;48.798;8.816;2022-07-29T05:12:21;6.40;;;5.80;;
71655;SDS011;59497;48.798;8.816;2022-07-29T05:14:46;6.10;;;5.50;;
71655;SDS011;59497;48.798;8.816;2022-07-29T05:17:12;6.32;;;5.45;;
71655;SDS011;59497;48.798;8.816;2022-07-29T05:19:37;7.07;;;5.27;;
71655;SDS011;59497;48.798;8.816;2022-07-29T05:22:02;6.53;;;5.93;;
71655;SDS011;59497;48.798;8.816;2022-07-29T05:24:27;6.53;;;5.93;;
71655;SDS011;59497;48.798;8.816;2022-07-29T05:26:52;6.73;;;5.93;;
71655;SDS011;59497;48.798;8.816;2022-07-29T05:29:18;6.70;;;5.77;;
71655;SDS011;59497;48.798;8.816;2022-07-29T05:31:43;6.77;;;6.17;;
71655;SDS011;59497;48.798;8.816;2022-07-29T05:34:08;5.93;;;5.38;;
71655;SDS011;59497;48.798;8.816;2022-07-29T05:36:33;6.30;;;5.70;;
71655;SDS011;59497;48.798;8.816;2022-07-29T05:38:58;6.32;;;5.78;;
71655;SDS011;59497;48.798;8.816;2022-07-29T05:41:23;6.45;;;5.78;;
71655;SDS011;59497;48.798;8.816;2022-07-29T05:43:49;6.80;;;5.90;;
71655;SDS011;59497;48.798;8.816;2022-07-29T05:46:14;7.10;;;6.30;;
71655;SDS011;59497;48.798;8.816;2022-07-29T05:48:39;7.00;;;6.27;;
71655;SDS011;59497;48.798;8.816;2022-07-29T05:51:04;6.70;;;6.07;;
71655;SDS011;59497;48.798;8.816;2022-07-29T05:53:30;7.53;;;5.60;;
71655;SDS011;59497;48.798;8.816;2022-07-29T05:55:55;7.27;;;5.97;;
71655;SDS011;59497;48.798;8.816;2022-07-29T05:58:20;7.55;;;6.47;;
71655;SDS011;59497;48.798;8.816;2022-07-29T06:00:45;7.03;;;5.83;;
71655;SDS011;59497;48.798;8.816;2022-07-29T06:03:11;6.30;;;5.70;;
71655;SDS011;59497;48.798;8.816;2022-07-29T06:05:36;6.53;;;5.50;;
71655;SDS011;59497;48.798;8.816;2022-07-29T06:08:01;6.43;;;5.93;;
71655;SDS011;59497;48.798;8.816;2022-07-29T06:10:26;6.70;;;6.07;;
71655;SDS011;59497;48.798;8.816;2022-07-29T06:12:52;6.40;;;5.50;;
71655;SDS011;59497;48.798;8.816;2022-07-29T06:15:17;7.30;;;6.10;;
71655;SDS011;59497;48.798;8.816;2022-07-29T06:17:42;6.73;;;6.00;;
71655;SDS011;59497;48.798;8.816;2022-07-29T06:20:08;6.07;;;5.47;;
71655;SDS011;59497;48.798;8.816;2022-07-29T06:22:33;6.37;;;5.70;;
71655;SDS011;59497;48.798;8.816;2022-07-29T06:24:58;6.90;;;6.30;;
71655;SDS011;59497;48.798;8.816;2022-07-29T06:27:23;6.20;;;5.60;;
71655;SDS011;59497;48.798;8.816;2022-07-29T06:29:49;6.53;;;5.93;;
71655;SDS011;59497;48.798;8.816;2022-07-29T06:32:14;8.35;;;6.35;;
71655;SDS011;59497;48.798;8.816;2022-07-29T06:34:39;7.23;;;6.50;;
71655;SDS011;59497;48.798;8.816;2022-07-29T06:37:08;6.85;;;6.15;;
71655;SDS011;59497;48.798;8.816;2022-07-29T06:39:36;7.40;;;6.70;;
71655;SDS011;59497;48.798;8.816;2022-07-29T06:42:01;5.90;;;5.40;;
71655;SDS011;59497;48.798;8.816;2022-07-29T06:44:26;6.63;;;6.03;;
71655;SDS011;59497;48.798;8.816;2022-07-29T06:46:52;8.10;;;6.03;;
71655;SDS011;59497;48.798;8.816;2022-07-29T06:49:17;7.07;;;6.35;;
71655;SDS011;59497;48.798;8.816;2022-07-29T06:51:43;6.47;;;5.87;;
71655;SDS011;59497;48.798;8.816;2022-07-29T06:54:08;7.33;;;6.60;;
71655;SDS011;59497;48.798;8.816;2022-07-29T06:56:34;6.90;;;6.30;;
71655;SDS011;59497;48.798;8.816;2022-07-29T06:59:03;7.20;;;6.53;;
71655;SDS011;59497;48.798;8.816;2022-07-29T07:01:28;6.78;;;6.18;;
71655;SDS011;59497;48.798;8.816;2022-07-29T07:03:53;6.67;;;6.07;;
71655;SDS011;59497;48.798;8.816;2022-07-29T07:06:18;6.90;;;6.13;;
71655;SDS011;59497;48.798;8.816;2022-07-29T07:08:43;6.30;;;5.70;;
71655;SDS011;59497;48.798;8.816;2022-07-29T07:11:09;6.40;;;5.63;;
71655;SDS011;59497;48.798;8.816;2022-07-29T07:13:34;6.10;;;5.53;;
71655;SDS011;59497;48.798;8.816;2022-07-29T07:16:00;6.23;;;5.60;;
71655;SDS011;59497;48.798;8.816;2022-07-29T07:18:25;6.97;;;5.83;;
71655;SDS011;59497;48.798;8.816;2022-07-29T07:20:50;6.40;;;5.80;;
71655;SDS011;59497;48.798;8.816;2022-07-29T07:23:15;6.43;;;5.75;;
71655;SDS011;59497;48.798;8.816;2022-07-29T07:25:40;6.13;;;5.63;;
71655;SDS011;59497;48.798;8.816;2022-07-29T07:28:06;6.70;;;5.90;;
71655;SDS011;59497;48.798;8.816;2022-07-29T07:30:32;6.40;;;5.80;;
71655;SDS011;59497;48.798;8.816;2022-07-29T07:32:57;6.27;;;5.23;;
71655;SDS011;59497;48.798;8.816;2022-07-29T07:35:22;6.17;;;5.57;;
71655;SDS011;59497;48.798;8.816;2022-07-29T07:37:47;6.37;;;5.77;;
71655;SDS011;59497;48.798;8.816;2022-07-29T07:40:13;6.37;;;5.77;;
71655;SDS011;59497;48.798;8.816;2022-07-29T07:42:39;6.03;;;5.50;;
71655;SDS011;59497;48.798;8.816;2022-07-29T07:45:04;5.90;;;5.40;;
71655;SDS011;59497;48.798;8.816;2022-07-29T07:47:30;6.28;;;5.63;;
71655;SDS011;59497;48.798;8.816;2022-07-29T07:49:56;6.07;;;5.57;;
71655;SDS011;59497;48.798;8.816;2022-07-29T07:52:21;5.97;;;5.47;;
71655;SDS011;59497;48.798;8.816;2022-07-29T07:54:47;6.20;;;5.60;;
71655;SDS011;59497;48.798;8.816;2022-07-29T07:57:12;7.57;;;5.90;;
71655;SDS011;59497;48.798;8.816;2022-07-29T07:59:38;5.90;;;5.33;;
71655;SDS011;59497;48.798;8.816;2022-07-29T08:02:03;6.32;;;5.50;;
71655;SDS011;59497;48.798;8.816;2022-07-29T08:04:28;6.43;;;5.50;;
71655;SDS011;59497;48.798;8.816;2022-07-29T08:06:53;5.90;;;5.30;;
71655;SDS011;59497;48.798;8.816;2022-07-29T08:09:19;8.37;;;6.20;;
71655;SDS011;59497;48.798;8.816;2022-07-29T08:11:44;6.30;;;5.70;;
71655;SDS011;59497;48.798;8.816;2022-07-29T08:14:10;6.70;;;6.00;;
71655;SDS011;59497;48.798;8.816;2022-07-29T08:16:35;6.23;;;5.10;;
71655;SDS011;59497;48.798;8.816;2022-07-29T08:19:00;6.33;;;5.60;;
71655;SDS011;59497;48.798;8.816;2022-07-29T08:21:25;6.30;;;5.80;;
71655;SDS011;59497;48.798;8.816;2022-07-29T08:23:50;6.23;;;5.73;;
71655;SDS011;59497;48.798;8.816;2022-07-29T08:26:18;6.82;;;5.82;;
71655;SDS011;59497;48.798;8.816;2022-07-29T08:28:43;6.32;;;5.72;;
71655;SDS011;59497;48.798;8.816;2022-07-29T08:31:14;5.65;;;5.15;;
71655;SDS011;59497;48.798;8.816;2022-07-29T08:33:40;5.57;;;5.03;;
71655;SDS011;59497;48.798;8.816;2022-07-29T08:36:05;6.03;;;5.50;;
71655;SDS011;59497;48.798;8.816;2022-07-29T08:38:31;5.80;;;5.30;;
71655;SDS011;59497;48.798;8.816;2022-07-29T08:40:56;5.97;;;5.47;;
71655;SDS011;59497;48.798;8.816;2022-07-29T08:43:21;5.27;;;4.77;;
71655;SDS011;59497;48.798;8.816;2022-07-29T08:45:47;6.20;;;5.70;;
71655;SDS011;59497;48.798;8.816;2022-07-29T08:48:13;7.03;;;5.20;;
71655;SDS011;59497;48.798;8.816;2022-07-29T08:50:40;5.70;;;5.18;;
71655;SDS011;59497;48.798;8.816;2022-07-29T08:53:07;6.23;;;5.63;;
71655;SDS011;59497;48.798;8.816;2022-07-29T08:55:32;5.60;;;5.10;;
71655;SDS011;59497;48.798;8.816;2022-07-29T08:57:57;8.63;;;5.60;;
71655;SDS011;59497;48.798;8.816;2022-07-29T09:00:23;5.78;;;5.20;;
71655;SDS011;59497;48.798;8.816;2022-07-29T09:02:50;5.23;;;4.83;;
71655;SDS011;59497;48.798;8.816;2022-07-29T09:05:16;5.50;;;5.00;;
71655;SDS011;59497;48.798;8.816;2022-07-29T09:07:41;5.33;;;4.83;;
71655;SDS011;59497;48.798;8.816;2022-07-29T09:10:08;5.65;;;5.22;;
71655;SDS011;59497;48.798;8.816;2022-07-29T09:12:33;6.40;;;5.30;;
71655;SDS011;59497;48.798;8.816;2022-07-29T09:14:58;5.07;;;4.60;;
71655;SDS011;59497;48.798;8.816;2022-07-29T09:17:39;8.40;;;4.83;;
71655;SDS011;59497;48.798;8.816;2022-07-29T09:20:09;6.10;;;5.45;;
71655;SDS011;59497;48.798;8.816;2022-07-29T09:22:34;6.68;;;5.82;;
71655;SDS011;59497;48.798;8.816;2022-07-29T09:24:59;5.53;;;5.10;;
71655;SDS011;59497;48.798;8.816;2022-07-29T09:27:25;6.33;;;5.73;;
71655;SDS011;59497;48.798;8.816;2022-07-29T09:32:25;5.65;;;4.95;;
71655;SDS011;59497;48.798;8.816;2022-07-29T09:34:51;5.18;;;4.75;;
71655;SDS011;59497;48.798;8.816;2022-07-29T09:37:26;5.22;;;4.82;;
71655;SDS011;59497;48.798;8.816;2022-07-29T09:39:52;5.73;;;5.17;;
71655;SDS011;59497;48.798;8.816;2022-07-29T09:42:27;5.73;;;5.13;;
71655;SDS011;59497;48.798;8.816;2022-07-29T09:44:52;5.90;;;5.30;;
71655;SDS011;59497;48.798;8.816;2022-07-29T09:47:18;5.60;;;5.07;;
71655;SDS011;59497;48.798;8.816;2022-07-29T09:49:53;5.60;;;5.07;;
71655;SDS011;59497;48.798;8.816;2022-07-29T09:52:19;5.32;;;4.47;;
71655;SDS011;59497;48.798;8.816;2022-07-29T09:54:44;12.03;;;5.30;;
71655;SDS011;59497;48.798;8.816;2022-07-29T09:57:21;6.47;;;4.73;;
71655;SDS011;59497;48.798;8.816;2022-07-29T10:02:45;6.28;;;4.97;;
71655;SDS011;59497;48.798;8.816;2022-07-29T10:07:49;5.47;;;5.00;;
71655;SDS011;59497;48.798;8.816;2022-07-29T10:12:49;5.35;;;4.85;;
71655;SDS011;59497;48.798;8.816;2022-07-29T10:15:15;5.63;;;5.13;;
71655;SDS011;59497;48.798;8.816;2022-07-29T10:17:40;5.33;;;4.67;;
71655;SDS011;59497;48.798;8.816;2022-07-29T10:20:06;5.10;;;4.57;;
71655;SDS011;59497;48.798;8.816;2022-07-29T10:22:31;5.00;;;4.50;;
71655;SDS011;59497;48.798;8.816;2022-07-29T10:24:56;4.77;;;4.30;;
71655;SDS011;59497;48.798;8.816;2022-07-29T10:27:22;6.07;;;4.70;;
71655;SDS011;59497;48.798;8.816;2022-07-29T10:29:48;5.38;;;4.88;;
71655;SDS011;59497;48.798;8.816;2022-07-29T10:32:16;4.97;;;4.57;;
71655;SDS011;59497;48.798;8.816;2022-07-29T10:37:30;4.53;;;4.13;;
71655;SDS011;59497;48.798;8.816;2022-07-29T10:40:11;5.10;;;4.57;;
71655;SDS011;59497;48.798;8.816;2022-07-29T10:42:59;5.13;;;4.73;;
71655;SDS011;59497;48.798;8.816;2022-07-29T10:45:28;4.70;;;4.28;;
71655;SDS011;59497;48.798;8.816;2022-07-29T10:48:03;6.20;;;4.93;;
71655;SDS011;59497;48.798;8.816;2022-07-29T10:50:51;6.03;;;4.40;;
71655;SDS011;59497;48.798;8.816;2022-07-29T10:53:14;5.18;;;4.68;;
71655;SDS011;59497;48.798;8.816;2022-07-29T10:55:40;5.30;;;4.90;;
71655;SDS011;59497;48.798;8.816;2022-07-29T10:58:20;5.57;;;5.07;;
71655;SDS011;59497;48.798;8.816;2022-07-29T11:00:47;6.57;;;5.22;;
71655;SDS011;59497;48.798;8.816;2022-07-29T11:05:56;5.43;;;4.93;;
71655;SDS011;59497;48.798;8.816;2022-07-29T11:08:22;5.87;;;5.17;;
71655;SDS011;59497;48.798;8.816;2022-07-29T11:10:48;6.07;;;4.97;;
71655;SDS011;59497;48.798;8.816;2022-07-29T11:15:58;5.60;;;4.63;;
71655;SDS011;59497;48.798;8.816;2022-07-29T11:18:23;6.50;;;5.00;;
71655;SDS011;59497;48.798;8.816;2022-07-29T11:20:49;4.70;;;4.30;;
71655;SDS011;59497;48.798;8.816;2022-07-29T11:25:43;6.65;;;4.60;;
71655;SDS011;59497;48.798;8.816;2022-07-29T11:28:08;5.37;;;4.83;;
71655;SDS011;59497;48.798;8.816;2022-07-29T11:30:48;4.80;;;4.40;;
71655;SDS011;59497;48.798;8.816;2022-07-29T11:33:29;5.80;;;4.60;;
71655;SDS011;59497;48.798;8.816;2022-07-29T11:36:13;5.20;;;4.73;;
71655;SDS011;59497;48.798;8.816;2022-07-29T11:38:39;6.93;;;4.50;;
71655;SDS011;59497;48.798;8.816;2022-07-29T11:43:46;10.13;;;4.57;;
71655;SDS011;59497;48.798;8.816;2022-07-29T11:46:11;5.25;;;4.80;;
71655;SDS011;59497;48.798;8.816;2022-07-29T11:48:36;5.27;;;4.80;;
71655;SDS011;59497;48.798;8.816;2022-07-29T11:51:08;4.70;;;4.30;;
71655;SDS011;59497;48.798;8.816;2022-07-29T11:53:34;5.20;;;4.43;;
71655;SDS011;59497;48.798;8.816;2022-07-29T11:56:00;5.20;;;4.40;;
71655;SDS011;59497;48.798;8.816;2022-07-29T11:58:26;6.27;;;4.53;;
71655;SDS011;59497;48.798;8.816;2022-07-29T12:00:52;5.35;;;4.88;;
71655;SDS011;59497;48.798;8.816;2022-07-29T12:03:23;4.93;;;4.50;;
71655;SDS011;59497;48.798;8.816;2022-07-29T12:05:48;4.32;;;3.85;;
71655;SDS011;59497;48.798;8.816;2022-07-29T12:08:14;3.77;;;3.47;;
71655;SDS011;59497;48.798;8.816;2022-07-29T12:10:41;4.37;;;3.50;;
71655;SDS011;59497;48.798;8.816;2022-07-29T12:13:07;4.20;;;3.80;;
71655;SDS011;59497;48.798;8.816;2022-07-29T12:15:32;4.47;;;4.00;;
71655;SDS011;59497;48.798;8.816;2022-07-29T12:17:57;3.95;;;3.65;;
71655;SDS011;59497;48.798;8.816;2022-07-29T12:20:26;3.87;;;3.57;;
71655;SDS011;59497;48.798;8.816;2022-07-29T12:22:52;4.87;;;4.53;;
71655;SDS011;59497;48.798;8.816;2022-07-29T12:25:18;4.78;;;4.28;;
71655;SDS011;59497;48.798;8.816;2022-07-29T12:27:44;4.37;;;3.97;;
71655;SDS011;59497;48.798;8.816;2022-07-29T12:30:10;4.33;;;3.93;;
71655;SDS011;59497;48.798;8.816;2022-07-29T12:32:36;5.00;;;4.03;;
71655;SDS011;59497;48.798;8.816;2022-07-29T12:35:12;4.55;;;4.18;;
71655;SDS011;59497;48.798;8.816;2022-07-29T12:37:38;4.95;;;4.55;;
71655;SDS011;59497;48.798;8.816;2022-07-29T12:40:04;4.60;;;3.90;;
71655;SDS011;59497;48.798;8.816;2022-07-29T12:42:30;5.28;;;4.80;;
71655;SDS011;59497;48.798;8.816;2022-07-29T12:44:55;15.50;;;4.90;;
71655;SDS011;59497;48.798;8.816;2022-07-29T12:47:22;7.10;;;4.53;;
71655;SDS011;59497;48.798;8.816;2022-07-29T12:49:48;5.90;;;3.60;;
71655;SDS011;59497;48.798;8.816;2022-07-29T12:52:46;5.05;;;4.45;;
71655;SDS011;59497;48.798;8.816;2022-07-29T12:55:04;76.50;;;9.05;;
71655;SDS011;59497;48.798;8.816;2022-07-29T12:57:30;48.13;;;7.13;;
71655;SDS011;59497;48.798;8.816;2022-07-29T13:02:35;85.93;;;11.82;;
71655;SDS011;59497;48.798;8.816;2022-07-29T13:05:01;61.83;;;9.67;;
71655;SDS011;59497;48.798;8.816;2022-07-29T13:07:28;15.85;;;4.55;;
71655;SDS011;59497;48.798;8.816;2022-07-29T13:09:54;8.18;;;4.43;;
71655;SDS011;59497;48.798;8.816;2022-07-29T13:12:19;8.40;;;4.63;;
71655;SDS011;59497;48.798;8.816;2022-07-29T13:14:46;11.30;;;4.75;;
71655;SDS011;59497;48.798;8.816;2022-07-29T13:17:15;5.93;;;3.75;;
71655;SDS011;59497;48.798;8.816;2022-07-29T13:19:42;13.13;;;3.80;;
71655;SDS011;59497;48.798;8.816;2022-07-29T13:22:12;9.18;;;3.92;;
71655;SDS011;59497;48.798;8.816;2022-07-29T13:24:47;3.80;;;3.50;;
71655;SDS011;59497;48.798;8.816;2022-07-29T13:27:19;4.10;;;3.70;;
71655;SDS011;59497;48.798;8.816;2022-07-29T13:29:45;5.03;;;4.35;;
71655;SDS011;59497;48.798;8.816;2022-07-29T13:32:10;6.27;;;3.77;;
71655;SDS011;59497;48.798;8.816;2022-07-29T13:34:36;5.28;;;4.22;;
71655;SDS011;59497;48.798;8.816;2022-07-29T13:37:01;5.03;;;4.53;;
71655;SDS011;59497;48.798;8.816;2022-07-29T13:39:27;8.37;;;4.33;;
71655;SDS011;59497;48.798;8.816;2022-07-29T13:41:52;4.57;;;4.13;;
71655;SDS011;59497;48.798;8.816;2022-07-29T13:44:17;4.63;;;4.23;;
71655;SDS011;59497;48.798;8.816;2022-07-29T13:46:42;5.13;;;4.50;;
71655;SDS011;59497;48.798;8.816;2022-07-29T13:49:07;6.15;;;4.45;;
71655;SDS011;59497;48.798;8.816;2022-07-29T13:51:32;4.37;;;3.97;;
71655;SDS011;59497;48.798;8.816;2022-07-29T13:53:58;4.83;;;4.27;;
71655;SDS011;59497;48.798;8.816;2022-07-29T13:56:23;5.00;;;4.07;;
71655;SDS011;59497;48.798;8.816;2022-07-29T13:58:48;4.93;;;3.53;;
71655;SDS011;59497;48.798;8.816;2022-07-29T14:01:13;3.80;;;3.50;;
71655;SDS011;59497;48.798;8.816;2022-07-29T14:03:38;5.00;;;3.50;;
71655;SDS011;59497;48.798;8.816;2022-07-29T14:06:06;4.47;;;3.50;;
71655;SDS011;59497;48.798;8.816;2022-07-29T14:08:31;4.33;;;4.03;;
71655;SDS011;59497;48.798;8.816;2022-07-29T14:10:56;5.10;;;4.20;;
71655;SDS011;59497;48.798;8.816;2022-07-29T14:13:21;4.40;;;4.00;;
71655;SDS011;59497;48.798;8.816;2022-07-29T14:15:46;21.50;;;4.40;;
71655;SDS011;59497;48.798;8.816;2022-07-29T14:18:12;5.60;;;3.47;;
71655;SDS011;59497;48.798;8.816;2022-07-29T14:20:37;3.33;;;2.92;;
71655;SDS011;59497;48.798;8.816;2022-07-29T14:23:02;3.40;;;2.90;;
71655;SDS011;59497;48.798;8.816;2022-07-29T14:25:27;4.80;;;3.70;;
71655;SDS011;59497;48.798;8.816;2022-07-29T14:27:52;3.85;;;3.42;;
71655;SDS011;59497;48.798;8.816;2022-07-29T14:30:19;4.00;;;2.97;;
71655;SDS011;59497;48.798;8.816;2022-07-29T14:32:44;3.43;;;2.90;;
71655;SDS011;59497;48.798;8.816;2022-07-29T14:35:09;3.50;;;2.93;;
71655;SDS011;59497;48.798;8.816;2022-07-29T14:37:35;3.00;;;2.80;;
71655;SDS011;59497;48.798;8.816;2022-07-29T14:40:00;3.73;;;3.33;;
71655;SDS011;59497;48.798;8.816;2022-07-29T14:42:28;3.33;;;3.03;;
71655;SDS011;59497;48.798;8.816;2022-07-29T14:44:53;3.77;;;2.80;;
71655;SDS011;59497;48.798;8.816;2022-07-29T14:47:18;2.90;;;2.60;;
71655;SDS011;59497;48.798;8.816;2022-07-29T14:49:44;3.93;;;3.07;;
71655;SDS011;59497;48.798;8.816;2022-07-29T14:52:09;3.97;;;2.63;;
71655;SDS011;59497;48.798;8.816;2022-07-29T14:54:34;5.20;;;4.25;;
71655;SDS011;59497;48.798;8.816;2022-07-29T14:56:59;3.47;;;3.20;;
71655;SDS011;59497;48.798;8.816;2022-07-29T14:59:25;3.37;;;3.00;;
71655;SDS011;59497;48.798;8.816;2022-07-29T15:01:51;4.28;;;3.60;;
71655;SDS011;59497;48.798;8.816;2022-07-29T15:04:16;4.20;;;3.07;;
71655;SDS011;59497;48.798;8.816;2022-07-29T15:06:41;3.40;;;2.80;;
71655;SDS011;59497;48.798;8.816;2022-07-29T15:09:06;3.27;;;3.00;;
71655;SDS011;59497;48.798;8.816;2022-07-29T15:11:31;3.90;;;3.50;;
71655;SDS011;59497;48.798;8.816;2022-07-29T15:13:57;3.40;;;3.10;;
71655;SDS011;59497;48.798;8.816;2022-07-29T15:16:22;4.63;;;3.15;;
71655;SDS011;59497;48.798;8.816;2022-07-29T15:18:47;3.50;;;3.13;;